38.6°F
Current conditions from King Hill
Updated every 5 minutes
 
  Friday April 18, 2014

Station Historical Data
Daily Summary for March 13, 2012 Units:  Metric    English   Both
« Previous Day
Next Day »
Daily Weekly Monthly Yearly Custom
  High: Low: Average:
Temperature: 16.8 °C 7.9 °C 12.1 °C
Dew Point: 9.8 °C 0.3 °C 4.5 °C
Humidity: 84% 49% 60%
Wind Speed: 17.7km/h 0km/h 8.4km/h
Wind Gust: 33.8km/h - -
Wind- - SW
Pressure: 1015.5 hPa 1008.7 hPa -
Precipitation: 4.6 mm    
Historical Graphs
 
 
Tabular Data for March 13, 2012
Time Temperature Dew Point Pressure Wind Wind Speed Wind Gust Humidity Daily Rainfall
00:00 9.6 °C 1.5 °C 1015.5 hPa Calm     57% 0.3 mm
00:05 9.5 °C 1.2 °C 1015.5 hPa Calm   4.8 km/h 56% 0 mm
00:15 9.2 °C 1.6 °C 1015.5 hPa Calm   4.8 km/h 59% 0 mm
00:20 9.2 °C 1.6 °C 1015.5 hPa Calm   1.6 km/h 59% 0 mm
00:25 9.1 °C 1.5 °C 1015.1 hPa Calm   1.6 km/h 59% 0 mm
00:35 8.8 °C 1.3 °C 1015.1 hPa Calm     59% 0 mm
00:40 8.7 °C 1.1 °C 1015.1 hPa Calm   1.6 km/h 59% 0 mm
00:50 7.9 °C 1.1 °C 1015.1 hPa Calm   1.6 km/h 62% 0 mm
00:55 7.9 °C 0.8 °C 1015.1 hPa SSW 1.6 km/h 4.8 km/h 61% 0 mm
01:00 8.1 °C 0.8 °C 1015.1 hPa SSW 1.6 km/h 4.8 km/h 60% 0 mm
01:05 8.4 °C 0.6 °C 1015.1 hPa SSW 1.6 km/h 4.8 km/h 58% 0 mm
01:10 8.8 °C 0.3 °C 1015.1 hPa SSW 1.6 km/h 4.8 km/h 55% 0 mm
01:15 9.6 °C 1 °C 1014.8 hPa SSW 3.2 km/h 8 km/h 55% 0 mm
01:20 9.6 °C 1.4 °C 1014.8 hPa SSW 1.6 km/h 8 km/h 57% 0 mm
01:25 9.6 °C 1.3 °C 1014.4 hPa SSW 1.6 km/h 8 km/h 56% 0 mm
01:30 9.6 °C 1.4 °C 1014.8 hPa SSW 1.6 km/h 4.8 km/h 57% 0 mm
01:40 9.5 °C 1.7 °C 1014.1 hPa Calm   3.2 km/h 58% 0 mm
01:45 9.7 °C 1.8 °C 1014.1 hPa SSW 3.2 km/h 11.3 km/h 58% 0 mm
01:55 10.7 °C 2.2 °C 1014.1 hPa Calm   8 km/h 56% 0 mm
02:00 10.6 °C 2.4 °C 1014.1 hPa Calm   1.6 km/h 57% 0 mm
02:05 10.3 °C 2.4 °C 1014.1 hPa Calm     58% 0 mm
02:10 10 °C 1.9 °C 1014.1 hPa Calm     57% 0 mm
02:20 9.8 °C 1.9 °C 1013.8 hPa Calm   3.2 km/h 58% 0 mm
02:25 9.8 °C 1.7 °C 1013.8 hPa Calm   3.2 km/h 57% 0 mm
02:30 9.8 °C 1.7 °C 1013.8 hPa Calm   3.2 km/h 57% 0 mm
02:35 9.9 °C 1 °C 1013.8 hPa SSW 3.2 km/h 6.4 km/h 54% 0 mm
02:40 10 °C 0.8 °C 1014.1 hPa SSW 1.6 km/h 6.4 km/h 53% 0 mm
02:45 10.2 °C 0.5 °C 1014.1 hPa SSW 1.6 km/h 8 km/h 51% 0 mm
02:50 10.7 °C 0.7 °C 1014.1 hPa SSW 1.6 km/h 8 km/h 50% 0 mm
02:55 10.9 °C 1.4 °C 1014.1 hPa Calm   8 km/h 52% 0 mm
03:05 9.4 °C 3.8 °C 1013.8 hPa SSW 3.2 km/h 6.4 km/h 68% 0 mm
03:10 9.1 °C 2.8 °C 1013.8 hPa Calm   6.4 km/h 65% 0 mm
03:15 9 °C 3 °C 1013.4 hPa SSW 1.6 km/h 8 km/h 66% 0 mm
03:25 8.8 °C 2.8 °C 1013.1 hPa Calm   8 km/h 66% 0 mm
03:30 8.7 °C 2.7 °C 1013.1 hPa Calm     66% 0 mm
03:35 8.7 °C 2.4 °C 1013.1 hPa Calm     65% 0 mm
03:45 8.7 °C 2.7 °C 1013.1 hPa Calm   1.6 km/h 66% 0 mm
03:50 8.7 °C 2.4 °C 1012.8 hPa Calm   1.6 km/h 65% 0 mm
03:55 8.7 °C 2.2 °C 1012.8 hPa Calm   6.4 km/h 64% 0 mm
04:00 9.1 °C 1.7 °C 1012.4 hPa South 4.8 km/h 14.5 km/h 60% 0 mm
04:05 10.2 °C 2.5 °C 1012.8 hPa SSW 3.2 km/h 14.5 km/h 59% 0 mm
04:10 10.8 °C 2.3 °C 1012.4 hPa South 3.2 km/h 9.7 km/h 56% 0 mm
04:15 11.3 °C 2.3 °C 1012.4 hPa SSW 3.2 km/h 9.7 km/h 54% 0 mm
04:20 11.5 °C 2.5 °C 1012.4 hPa Calm   9.7 km/h 54% 0 mm
04:25 11.4 °C 2.7 °C 1012.4 hPa Calm   8 km/h 55% 0 mm
04:35 10.7 °C 2.5 °C 1012.1 hPa SSW 3.2 km/h 8 km/h 57% 0 mm
04:40 10.8 °C 2.2 °C 1012.1 hPa SSW 3.2 km/h 9.7 km/h 55% 0 mm
04:50 11.8 °C 2.5 °C 1012.1 hPa South 8 km/h 14.5 km/h 53% 0 mm
05:00 12.4 °C 2.6 °C 1011.7 hPa SSW 8 km/h 19.3 km/h 51% 0 mm
05:05 12.4 °C 2.8 °C 1011.7 hPa South 4.8 km/h 19.3 km/h 52% 0 mm
05:10 12.3 °C 2.8 °C 1011.7 hPa SSW 4.8 km/h 20.9 km/h 52% 0 mm
05:15 12.2 °C 2.9 °C 1011.7 hPa SSW 4.8 km/h 20.9 km/h 53% 0 mm
05:20 12 °C 2.7 °C 1011.4 hPa SSW 4.8 km/h 14.5 km/h 53% 0 mm
05:25 11.8 °C 2.8 °C 1011.4 hPa Calm   16.1 km/h 54% 0 mm
05:30 11.6 °C 2.8 °C 1011.4 hPa SSW 8 km/h 16.1 km/h 55% 0 mm
05:35 11.5 °C 3.1 °C 1011.4 hPa SSW 4.8 km/h 16.1 km/h 56% 0 mm
05:45 11.5 °C 3.1 °C 1011.1 hPa South 8 km/h 22.5 km/h 56% 0 mm
05:50 11.5 °C 2.8 °C 1011.1 hPa SSW 8 km/h 22.5 km/h 55% 0 mm
05:55 11.5 °C 3.1 °C 1011.4 hPa SSW 8 km/h 17.7 km/h 56% 0 mm
06:00 11.6 °C 2.8 °C 1011.1 hPa SSW 6.4 km/h 16.1 km/h 55% 0 mm
06:05 11.6 °C 2.6 °C 1011.1 hPa SSW 6.4 km/h 17.7 km/h 54% 0 mm
06:10 11.7 °C 2.7 °C 1011.1 hPa SSW 9.7 km/h 17.7 km/h 54% 0 mm
06:15 11.9 °C 2.6 °C 1011.1 hPa SSW 11.3 km/h 20.9 km/h 53% 0 mm
06:20 12 °C 2.7 °C 1011.1 hPa SSW 8 km/h 20.9 km/h 53% 0 mm
06:25 11.9 °C 2.7 °C 1011.1 hPa SSW 9.7 km/h 20.9 km/h 53% 0 mm
06:30 11.9 °C 2.7 °C 1011.1 hPa SSW 9.7 km/h 22.5 km/h 53% 0 mm
06:40 11.9 °C 2.6 °C 1011.1 hPa SSW 6.4 km/h 20.9 km/h 53% 0 mm
06:50 11.8 °C 2.6 °C 1011.1 hPa SSW 9.7 km/h 22.5 km/h 53% 0 mm
06:55 11.9 °C 2.4 °C 1011.1 hPa SSW 12.9 km/h 24.1 km/h 52% 0 mm
07:00 12.1 °C 2.5 °C 1010.7 hPa SSW 12.9 km/h 24.1 km/h 52% 0 mm
07:05 12.1 °C 2.6 °C 1010.7 hPa SSW 9.7 km/h 20.9 km/h 52% 0 mm
07:10 12.1 °C 2.5 °C 1011.1 hPa SSW 9.7 km/h 20.9 km/h 52% 0 mm
07:15 12.1 °C 2.5 °C 1011.1 hPa SSW 9.7 km/h 22.5 km/h 52% 0 mm
07:20 12.1 °C 2.5 °C 1010.7 hPa South 8 km/h 22.5 km/h 52% 0 mm
07:30 12.1 °C 2.8 °C 1010.7 hPa SSW 11.3 km/h 20.9 km/h 53% 0 mm
07:35 12.1 °C 2.8 °C 1010.7 hPa SSW 11.3 km/h 20.9 km/h 53% 0 mm
07:45 12.2 °C 3.2 °C 1010.4 hPa SSW 9.7 km/h 25.7 km/h 54% 0 mm
07:50 12.2 °C 3.1 °C 1010.4 hPa SSW 9.7 km/h 25.7 km/h 54% 0 mm
07:55 12.2 °C 3.1 °C 1010 hPa South 11.3 km/h 24.1 km/h 54% 0 mm
08:00 12.1 °C 3.1 °C 1010 hPa South 8 km/h 24.1 km/h 54% 0 mm
08:05 12.1 °C 3.3 °C 1010.4 hPa SSW 8 km/h 19.3 km/h 55% 0 mm
08:10 12.1 °C 3.3 °C 1010 hPa SSW 12.9 km/h 20.9 km/h 55% 0 mm
08:20 12.1 °C 3.6 °C 1010.4 hPa SSW 8 km/h 16.1 km/h 56% 0 mm
08:25 12.1 °C 3.6 °C 1010.4 hPa SSW 9.7 km/h 20.9 km/h 56% 0 mm
08:30 12.1 °C 3.6 °C 1010 hPa SSW 11.3 km/h 29 km/h 56% 0 mm
08:35 12.2 °C 3.7 °C 1010 hPa SSW 11.3 km/h 29 km/h 56% 0 mm
08:40 12.3 °C 3.5 °C 1010 hPa SSW 17.7 km/h 27.4 km/h 55% 0 mm
08:45 12.3 °C 3.8 °C 1010 hPa SSW 11.3 km/h 27.4 km/h 56% 0 mm
08:50 12.4 °C 3.7 °C 1010 hPa SSW 11.3 km/h 29 km/h 55% 0 mm
08:55 12.5 °C 3.7 °C 1009.7 hPa SSW 11.3 km/h 29 km/h 55% 0 mm
09:00 12.6 °C 3.8 °C 1009.7 hPa SSW 11.3 km/h 27.4 km/h 55% 0 mm
09:05 12.6 °C 3.8 °C 1009.7 hPa SSW 11.3 km/h 22.5 km/h 55% 0 mm
09:10 12.7 °C 3.6 °C 1009.4 hPa SSW 12.9 km/h 22.5 km/h 54% 0 mm
09:15 12.7 °C 3.6 °C 1009.4 hPa South 12.9 km/h 27.4 km/h 54% 0 mm
09:20 12.7 °C 3.9 °C 1009.7 hPa SSW 14.5 km/h 27.4 km/h 55% 0 mm
09:30 12.4 °C 4.7 °C 1009.4 hPa SSW 8 km/h 20.9 km/h 59% 0 mm
09:35 12.1 °C 4.8 °C 1009.4 hPa SSW 11.3 km/h 24.1 km/h 61% 0.3 mm
09:45 12.1 °C 4.3 °C 1009 hPa SSW 14.5 km/h 29 km/h 59% 0.3 mm
09:50 12.2 °C 4.2 °C 1009 hPa SSW 11.3 km/h 27.4 km/h 58% 0.3 mm
10:00 12.5 °C 4.4 °C 1009 hPa SSW 14.5 km/h 30.6 km/h 58% 0.3 mm
10:05 12.7 °C 4.4 °C 1008.7 hPa SSW 14.5 km/h 32.2 km/h 57% 0.3 mm
10:15 12.8 °C 4.5 °C 1009 hPa SSW 12.9 km/h 33.8 km/h 57% 0.3 mm
10:20 12.7 °C 5.4 °C 1009 hPa SSW 11.3 km/h 30.6 km/h 61% 0.3 mm
10:25 12.1 °C 5.7 °C 1009 hPa SSW 12.9 km/h 29 km/h 65% 0.5 mm
10:35 11.7 °C 5.8 °C 1008.7 hPa SSW 9.7 km/h 22.5 km/h 67% 0.5 mm
10:40 11.7 °C 5.9 °C 1009 hPa SSW 11.3 km/h 20.9 km/h 68% 0.5 mm
10:45 11.2 °C 6.2 °C 1009 hPa SSW 11.3 km/h 25.7 km/h 71% 1.3 mm
10:50 10.7 °C 6.7 °C 1009.4 hPa SW 4.8 km/h 25.7 km/h 76% 2 mm
10:55 10.3 °C 6.8 °C 1009.7 hPa WSW 3.2 km/h 11.3 km/h 79% 2.5 mm
11:00 10.1 °C 6.6 °C 1009.7 hPa SW 12.9 km/h 22.5 km/h 79% 2.8 mm
11:05 10.2 °C 6.7 °C 1009.4 hPa SSW 12.9 km/h 27.4 km/h 79% 3 mm
11:10 10 °C 6.7 °C 1009 hPa SSW 11.3 km/h 27.4 km/h 80% 3.6 mm
11:15 9.8 °C 6.7 °C 1008.7 hPa South 9.7 km/h 29 km/h 81% 4.1 mm
11:20 9.7 °C 6.8 °C 1008.7 hPa SSW 9.7 km/h 29 km/h 82% 4.3 mm
11:30 9.8 °C 7.1 °C 1009 hPa SSW 12.9 km/h 25.7 km/h 83% 4.6 mm
11:35 9.8 °C 7.1 °C 1009 hPa SSW 14.5 km/h 24.1 km/h 83% 4.6 mm
11:45 9.9 °C 7.4 °C 1009 hPa SSW 8 km/h 24.1 km/h 84% 4.6 mm
11:50 10.1 °C 7.5 °C 1008.7 hPa SSW 4.8 km/h 22.5 km/h 84% 4.6 mm
11:55 10.1 °C 7.5 °C 1008.7 hPa SSW 9.7 km/h 19.3 km/h 84% 4.6 mm
12:00 10.2 °C 7.6 °C 1008.7 hPa SSW 9.7 km/h 24.1 km/h 84% 4.6 mm
12:05 10.3 °C 7.7 °C 1009 hPa SSW 6.4 km/h 24.1 km/h 84% 4.6 mm
12:10 10.3 °C 7.6 °C 1008.7 hPa SSW 8 km/h 16.1 km/h 83% 4.6 mm
12:20 10.5 °C 7.7 °C 1009 hPa SSW 8 km/h 16.1 km/h 83% 4.6 mm
12:25 10.6 °C 7.6 °C 1009 hPa SSW 8 km/h 22.5 km/h 82% 4.6 mm
12:30 10.6 °C 7.8 °C 1009 hPa SSW 8 km/h 22.5 km/h 83% 4.6 mm
12:35 10.6 °C 7.8 °C 1009 hPa SSW 8 km/h 17.7 km/h 83% 4.6 mm
12:40 10.7 °C 7.9 °C 1009 hPa SW 8 km/h 17.7 km/h 83% 4.6 mm
12:45 10.9 °C 8.2 °C 1009 hPa SSW 9.7 km/h 17.7 km/h 83% 4.6 mm
12:50 11.3 °C 8.1 °C 1009 hPa SW 14.5 km/h 20.9 km/h 81% 4.6 mm
12:55 11.5 °C 8 °C 1009 hPa SSW 12.9 km/h 20.9 km/h 79% 4.6 mm
13:00 11.8 °C 8.3 °C 1009 hPa SW 9.7 km/h 20.9 km/h 79% 4.6 mm
13:05 12.6 °C 9.3 °C 1009 hPa SW 9.7 km/h 20.9 km/h 80% 4.6 mm
13:10 13.4 °C 9.2 °C 1009 hPa SW 14.5 km/h 22.5 km/h 76% 4.6 mm
13:15 13.8 °C 9.2 °C 1009 hPa West 11.3 km/h 22.5 km/h 74% 4.6 mm
13:20 14.2 °C 9.7 °C 1009 hPa SW 9.7 km/h 19.3 km/h 74% 4.6 mm
13:25 14.9 °C 9.7 °C 1009 hPa SW 12.9 km/h 20.9 km/h 71% 4.6 mm
13:30 15.3 °C 9.8 °C 1009 hPa WSW 12.9 km/h 20.9 km/h 70% 4.6 mm
13:40 14.8 °C 9.2 °C 1009 hPa WSW 6.4 km/h 20.9 km/h 69% 4.6 mm
13:50 15.2 °C 9.1 °C 1009 hPa WSW 12.9 km/h 20.9 km/h 67% 4.6 mm
13:55 15.3 °C 9.2 °C 1009 hPa WSW 11.3 km/h 20.9 km/h 67% 4.6 mm
14:05 15.8 °C 9.2 °C 1009 hPa West 11.3 km/h 22.5 km/h 65% 4.6 mm
14:10 15.5 °C 8.9 °C 1009 hPa West 9.7 km/h 27.4 km/h 65% 4.6 mm
14:15 15.6 °C 9.2 °C 1009 hPa WSW 12.9 km/h 27.4 km/h 66% 4.6 mm
14:20 15.9 °C 9.6 °C 1009 hPa WSW 11.3 km/h 27.4 km/h 66% 4.6 mm
14:25 16.3 °C 9.7 °C 1009 hPa West 9.7 km/h 27.4 km/h 65% 4.6 mm
14:30 16.5 °C 8.9 °C 1009 hPa West 14.5 km/h 24.1 km/h 61% 4.6 mm
14:40 16.8 °C 9.4 °C 1009 hPa West 11.3 km/h 24.1 km/h 62% 4.6 mm
14:45 16.8 °C 9.4 °C 1009 hPa West 11.3 km/h 17.7 km/h 62% 4.6 mm
14:50 16.7 °C 8.9 °C 1009 hPa WSW 11.3 km/h 25.7 km/h 60% 4.6 mm
14:55 15.9 °C 8.4 °C 1009 hPa West 8 km/h 25.7 km/h 61% 4.6 mm
15:00 15.4 °C 8.4 °C 1009 hPa West 9.7 km/h 20.9 km/h 63% 4.6 mm
15:10 15 °C 7.8 °C 1009.4 hPa West 12.9 km/h 22.5 km/h 62% 4.6 mm
15:15 15 °C 7.6 °C 1009 hPa WSW 9.7 km/h 22.5 km/h 61% 4.6 mm
15:20 15 °C 7.6 °C 1009.4 hPa West 9.7 km/h 22.5 km/h 61% 4.6 mm
15:30 15.3 °C 7.8 °C 1009.4 hPa WNW 11.3 km/h 19.3 km/h 61% 4.6 mm
15:35 15.7 °C 7.7 °C 1009.4 hPa WSW 11.3 km/h 22.5 km/h 59% 4.6 mm
15:40 15.3 °C 7.1 °C 1009.4 hPa WSW 11.3 km/h 24.1 km/h 58% 4.6 mm
15:45 15.1 °C 7.3 °C 1009.4 hPa WSW 6.4 km/h 24.1 km/h 60% 4.6 mm
15:50 15.8 °C 7.6 °C 1009.4 hPa West 11.3 km/h 20.9 km/h 58% 4.6 mm
16:00 16.1 °C 6.8 °C 1009.4 hPa West 8 km/h 19.3 km/h 54% 4.6 mm
16:05 16.2 °C 7.1 °C 1009.4 hPa West 8 km/h 32.2 km/h 55% 4.6 mm
16:15 16.1 °C 6.8 °C 1009.4 hPa West 16.1 km/h 30.6 km/h 54% 4.6 mm
16:20 16.3 °C 6.7 °C 1009.4 hPa WSW 11.3 km/h 30.6 km/h 53% 4.6 mm
16:25 16.7 °C 6.8 °C 1009.4 hPa WNW 11.3 km/h 22.5 km/h 52% 4.6 mm
16:30 16.8 °C 6.3 °C 1009.4 hPa West 16.1 km/h 25.7 km/h 50% 4.6 mm
16:35 16.6 °C 6.2 °C 1009.4 hPa West 11.3 km/h 25.7 km/h 50% 4.6 mm
16:40 16.4 °C 6.3 °C 1009.4 hPa WSW 12.9 km/h 27.4 km/h 51% 4.6 mm
16:50 16.5 °C 6.3 °C 1009.4 hPa West 8 km/h 25.7 km/h 51% 4.6 mm
16:55 16.4 °C 6.2 °C 1009.4 hPa WNW 8 km/h 20.9 km/h 51% 4.6 mm
17:00 16.4 °C 6.3 °C 1009.4 hPa West 6.4 km/h 20.9 km/h 51% 4.6 mm
17:05 16.2 °C 5.5 °C 1009.4 hPa WSW 12.9 km/h 25.7 km/h 49% 4.6 mm
17:10 16.2 °C 5.7 °C 1009.4 hPa West 6.4 km/h 25.7 km/h 50% 4.6 mm
17:15 15.9 °C 5.2 °C 1009.4 hPa WSW 11.3 km/h 27.4 km/h 49% 4.6 mm
17:20 15.7 °C 5.3 °C 1009.4 hPa WSW 4.8 km/h 27.4 km/h 50% 4.6 mm
17:25 15.6 °C 5.4 °C 1009.7 hPa WSW 9.7 km/h 17.7 km/h 51% 4.6 mm
17:30 15 °C 5.2 °C 1009.7 hPa WSW 4.8 km/h 17.7 km/h 52% 4.6 mm
17:35 14.8 °C 5 °C 1009.7 hPa West 3.2 km/h 16.1 km/h 52% 4.6 mm
17:40 14.8 °C 5.6 °C 1009.7 hPa WNW 6.4 km/h 16.1 km/h 54% 4.6 mm
17:45 14.5 °C 5.3 °C 1009.7 hPa WNW 12.9 km/h 25.7 km/h 54% 4.6 mm
17:50 14.1 °C 5.2 °C 1010 hPa WNW 17.7 km/h 29 km/h 55% 4.6 mm
18:00 13.7 °C 5.1 °C 1010 hPa WNW 9.7 km/h 24.1 km/h 56% 4.6 mm
18:05 13.5 °C 4.9 °C 1010 hPa WNW 12.9 km/h 25.7 km/h 56% 4.6 mm
18:10 13.6 °C 4.9 °C 1010.4 hPa WNW 9.7 km/h 25.7 km/h 56% 4.6 mm
18:15 13.6 °C 4.9 °C 1010.4 hPa WNW 14.5 km/h 25.7 km/h 56% 4.6 mm
18:20 13.6 °C 4.9 °C 1010.7 hPa WNW 11.3 km/h 20.9 km/h 56% 4.6 mm
18:25 13.5 °C 4.9 °C 1010.4 hPa WNW 11.3 km/h 20.9 km/h 56% 4.6 mm
18:30 13.5 °C 4.7 °C 1010.7 hPa WNW 17.7 km/h 32.2 km/h 55% 4.6 mm
18:35 13.4 °C 4.6 °C 1010.7 hPa WNW 14.5 km/h 32.2 km/h 55% 4.6 mm
18:45 13.2 °C 4.6 °C 1010.7 hPa West 9.7 km/h 22.5 km/h 56% 4.6 mm
18:50 13.2 °C 4.8 °C 1010.7 hPa WNW 16.1 km/h 25.7 km/h 57% 4.6 mm
18:55 13.1 °C 4.8 °C 1010.7 hPa West 12.9 km/h 25.7 km/h 57% 4.6 mm
19:00 12.9 °C 4.6 °C 1010.7 hPa WSW 8 km/h 20.9 km/h 57% 4.6 mm
19:10 12.7 °C 4.6 °C 1011.1 hPa WSW 6.4 km/h 11.3 km/h 58% 4.6 mm
19:15 12.8 °C 4.7 °C 1010.7 hPa WSW 6.4 km/h 14.5 km/h 58% 4.6 mm
19:20 12.7 °C 4.7 °C 1011.1 hPa SW 4.8 km/h 14.5 km/h 58% 4.6 mm
19:25 12.7 °C 4.6 °C 1011.1 hPa WSW 6.4 km/h 12.9 km/h 58% 4.6 mm
19:30 12.4 °C 4.7 °C 1011.1 hPa West 6.4 km/h 11.3 km/h 59% 4.6 mm
19:35 12.3 °C 4.5 °C 1011.1 hPa SW 4.8 km/h 11.3 km/h 59% 4.6 mm
19:45 11.9 °C 4.4 °C 1011.1 hPa WSW 1.6 km/h 9.7 km/h 60% 4.6 mm
19:55 11.7 °C 4.2 °C 1011.1 hPa Calm   9.7 km/h 60% 4.6 mm
20:00 11.4 °C 3.9 °C 1011.1 hPa WSW 1.6 km/h 9.7 km/h 60% 4.6 mm
20:05 11.6 °C 4.1 °C 1011.1 hPa WSW 1.6 km/h 14.5 km/h 60% 4.6 mm
20:10 11.4 °C 3.9 °C 1011.1 hPa WSW 3.2 km/h 14.5 km/h 60% 4.6 mm
20:15 11.2 °C 3.9 °C 1011.1 hPa WSW 3.2 km/h 12.9 km/h 61% 4.6 mm
20:20 11.3 °C 3.8 °C 1011.1 hPa WSW 4.8 km/h 16.1 km/h 60% 4.6 mm
20:25 11.6 °C 4.1 °C 1011.1 hPa SW 4.8 km/h 16.1 km/h 60% 4.6 mm
20:30 11.6 °C 4.1 °C 1011.1 hPa SW 3.2 km/h 16.1 km/h 60% 4.6 mm
20:40 11.7 °C 3.9 °C 1011.1 hPa SW 4.8 km/h 12.9 km/h 59% 4.6 mm
20:45 11.9 °C 3.9 °C 1011.1 hPa SSW 6.4 km/h 12.9 km/h 58% 4.6 mm
20:50 12.2 °C 3.7 °C 1011.1 hPa SW 8 km/h 16.1 km/h 56% 4.6 mm
20:55 12.3 °C 3.8 °C 1011.1 hPa SSW 8 km/h 16.1 km/h 56% 4.6 mm
21:00 12.3 °C 3.8 °C 1011.1 hPa SW 6.4 km/h 17.7 km/h 56% 4.6 mm
21:05 12.4 °C 3.7 °C 1011.4 hPa SW 11.3 km/h 19.3 km/h 55% 4.6 mm
21:10 12.7 °C 3.9 °C 1011.4 hPa SW 3.2 km/h 19.3 km/h 55% 4.6 mm
21:20 12.3 °C 3.6 °C 1011.4 hPa SW 9.7 km/h 14.5 km/h 55% 4.6 mm
21:25 12.4 °C 3.7 °C 1011.4 hPa SW 1.6 km/h 14.5 km/h 55% 4.6 mm
21:30 12.2 °C 3.7 °C 1011.4 hPa SW 1.6 km/h 12.9 km/h 56% 4.6 mm
21:40 11.9 °C 3.4 °C 1011.4 hPa Calm   11.3 km/h 56% 4.6 mm
21:50 11.5 °C 3.5 °C 1011.4 hPa SSW 3.2 km/h 12.9 km/h 58% 4.6 mm
21:55 11.3 °C 3.4 °C 1011.4 hPa Calm   12.9 km/h 58% 4.6 mm
22:00 11.2 °C 3.2 °C 1011.4 hPa SSW 3.2 km/h 8 km/h 58% 4.6 mm
22:05 11.2 °C 3.2 °C 1011.4 hPa South 3.2 km/h 11.3 km/h 58% 4.6 mm
22:10 11.2 °C 3.2 °C 1011.4 hPa SSW 6.4 km/h 12.9 km/h 58% 4.6 mm
22:15 11.1 °C 3.2 °C 1011.1 hPa SSW 6.4 km/h 12.9 km/h 58% 4.6 mm
22:25 11.1 °C 3.2 °C 1011.4 hPa SSW 4.8 km/h 12.9 km/h 58% 4.6 mm
22:30 10.9 °C 3.2 °C 1011.4 hPa SSW 4.8 km/h 11.3 km/h 59% 4.6 mm
22:35 10.8 °C 3.2 °C 1011.4 hPa SSW 6.4 km/h 11.3 km/h 59% 4.6 mm
22:40 10.8 °C 3.3 °C 1011.4 hPa SSW 3.2 km/h 11.3 km/h 60% 4.6 mm
22:45 10.7 °C 3.3 °C 1011.4 hPa SW 4.8 km/h 11.3 km/h 60% 4.6 mm
22:50 10.8 °C 3.4 °C 1011.4 hPa SSW 6.4 km/h 16.1 km/h 60% 4.6 mm
22:55 11 °C 3.8 °C 1011.4 hPa SW 4.8 km/h 16.1 km/h 61% 4.6 mm
23:00 11.2 °C 4 °C 1011.4 hPa SSW 3.2 km/h 12.9 km/h 61% 4.6 mm
23:05 11.2 °C 4 °C 1011.4 hPa SW 3.2 km/h 12.9 km/h 61% 4.6 mm
23:15 11.3 °C 4.3 °C 1011.7 hPa WSW 8 km/h 17.7 km/h 62% 4.6 mm
23:20 11.8 °C 4.7 °C 1011.7 hPa WSW 6.4 km/h 19.3 km/h 62% 4.6 mm
23:30 12.2 °C 4.9 °C 1011.7 hPa SW 8 km/h 16.1 km/h 61% 4.6 mm
23:40 12.3 °C 4.7 °C 1011.7 hPa West 9.7 km/h 22.5 km/h 60% 4.6 mm
23:50 12.4 °C 4.9 °C 1011.4 hPa WSW 8 km/h 20.9 km/h 60% 4.6 mm
23:55 12.4 °C 4.9 °C 1011.7 hPa West 9.7 km/h 19.3 km/h 60% 4.6 mm
Westford Weather
Compliments of Weather Underground

 
 
Current Radar Loop:

Copyright © WestfordWeather.net 2007-2014. All rights reserved.